Terminal Aerodrome Forecast
Issued by NWS Pendleton, OR

Home | Current Version | Previous Version | Text Only | Print | Product List | Glossary On
Versions: 1 2 3 4 5 6 7 8 9 10 11 12 13 14 15 16
000
FTUS46 KPDT 211120
TAFPDT
TAF
KPDT 211120Z 2112/2212 23005KT P6SM OVC070
     FM211800 29007KT P6SM SCT070 BKN120
     FM220600 22006KT P6SM OVC060=

USA.gov is the U.S. government's official web portal to all federal, state and local government web resources and services.